sensor_id;sensor_type;location;lat;lon;timestamp;temperature;humidity
75161;DHT22;67232;50.096;8.716;2023-11-19T04:41:51;0.00;0.00
75161;DHT22;67232;50.096;8.716;2023-11-19T04:44:20;10.20;94.80
75161;DHT22;67232;50.096;8.716;2023-11-19T04:46:46;10.30;94.50
75161;DHT22;67232;50.096;8.716;2023-11-19T04:49:12;10.20;94.50
75161;DHT22;67232;50.096;8.716;2023-11-19T04:51:42;10.20;94.70
75161;DHT22;67232;50.096;8.716;2023-11-19T04:54:12;10.20;94.80
75161;DHT22;67232;50.096;8.716;2023-11-19T04:56:38;10.30;94.60
75161;DHT22;67232;50.096;8.716;2023-11-19T04:59:05;10.30;94.50
75161;DHT22;67232;50.096;8.716;2023-11-19T05:01:32;10.30;94.70
75161;DHT22;67232;50.096;8.716;2023-11-19T05:03:57;10.30;94.60
75161;DHT22;67232;50.096;8.716;2023-11-19T05:06:32;10.40;94.40
75161;DHT22;67232;50.096;8.716;2023-11-19T05:09:00;10.50;94.40
75161;DHT22;67232;50.096;8.716;2023-11-19T05:11:31;10.60;94.20
75161;DHT22;67232;50.096;8.716;2023-11-19T05:13:59;10.50;94.30
75161;DHT22;67232;50.096;8.716;2023-11-19T05:16:29;10.50;94.40
75161;DHT22;67232;50.096;8.716;2023-11-19T05:18:57;10.50;94.40
75161;DHT22;67232;50.096;8.716;2023-11-19T05:21:25;10.60;94.10
75161;DHT22;67232;50.096;8.716;2023-11-19T05:23:51;10.60;94.30
75161;DHT22;67232;50.096;8.716;2023-11-19T05:26:20;10.60;94.30
75161;DHT22;67232;50.096;8.716;2023-11-19T05:28:47;10.50;94.30
75161;DHT22;67232;50.096;8.716;2023-11-19T05:31:17;10.60;94.20
75161;DHT22;67232;50.096;8.716;2023-11-19T05:33:43;10.60;94.20
75161;DHT22;67232;50.096;8.716;2023-11-19T05:36:11;10.60;94.30
75161;DHT22;67232;50.096;8.716;2023-11-19T05:38:38;10.50;94.40
75161;DHT22;67232;50.096;8.716;2023-11-19T05:41:04;10.70;94.20
75161;DHT22;67232;50.096;8.716;2023-11-19T05:43:32;10.60;94.20
75161;DHT22;67232;50.096;8.716;2023-11-19T05:46:00;10.70;94.30
75161;DHT22;67232;50.096;8.716;2023-11-19T05:48:27;10.70;94.20
75161;DHT22;67232;50.096;8.716;2023-11-19T05:50:53;10.70;94.30
75161;DHT22;67232;50.096;8.716;2023-11-19T05:53:19;10.60;94.20
75161;DHT22;67232;50.096;8.716;2023-11-19T05:55:44;10.70;94.40
75161;DHT22;67232;50.096;8.716;2023-11-19T05:58:16;10.70;94.30
75161;DHT22;67232;50.096;8.716;2023-11-19T06:00:42;10.70;94.40
75161;DHT22;67232;50.096;8.716;2023-11-19T06:03:09;10.70;94.30
75161;DHT22;67232;50.096;8.716;2023-11-19T06:05:34;10.80;94.20
75161;DHT22;67232;50.096;8.716;2023-11-19T06:08:02;10.80;94.20
75161;DHT22;67232;50.096;8.716;2023-11-19T06:10:30;10.80;94.10
75161;DHT22;67232;50.096;8.716;2023-11-19T06:12:58;10.80;94.10
75161;DHT22;67232;50.096;8.716;2023-11-19T06:15:25;10.80;94.20
75161;DHT22;67232;50.096;8.716;2023-11-19T06:17:51;10.80;94.10
75161;DHT22;67232;50.096;8.716;2023-11-19T06:20:17;10.90;94.10
75161;DHT22;67232;50.096;8.716;2023-11-19T06:22:45;10.90;94.00
75161;DHT22;67232;50.096;8.716;2023-11-19T06:25:11;11.00;94.30
75161;DHT22;67232;50.096;8.716;2023-11-19T06:27:40;10.90;94.10
75161;DHT22;67232;50.096;8.716;2023-11-19T06:30:06;10.90;94.30
75161;DHT22;67232;50.096;8.716;2023-11-19T06:32:32;11.00;94.50
75161;DHT22;67232;50.096;8.716;2023-11-19T06:35:00;11.00;94.50
75161;DHT22;67232;50.096;8.716;2023-11-19T06:37:26;11.00;94.30
75161;DHT22;67232;50.096;8.716;2023-11-19T06:39:52;11.00;94.40
75161;DHT22;67232;50.096;8.716;2023-11-19T06:42:18;11.10;94.30
75161;DHT22;67232;50.096;8.716;2023-11-19T06:44:46;11.00;94.20
75161;DHT22;67232;50.096;8.716;2023-11-19T06:47:11;11.00;94.30
75161;DHT22;67232;50.096;8.716;2023-11-19T06:49:37;11.00;94.40
75161;DHT22;67232;50.096;8.716;2023-11-19T06:52:03;11.10;94.20
75161;DHT22;67232;50.096;8.716;2023-11-19T06:54:29;11.10;94.40
75161;DHT22;67232;50.096;8.716;2023-11-19T06:56:56;11.00;94.50
75161;DHT22;67232;50.096;8.716;2023-11-19T06:59:22;11.10;94.70
75161;DHT22;67232;50.096;8.716;2023-11-19T07:01:50;11.30;94.20
75161;DHT22;67232;50.096;8.716;2023-11-19T07:04:18;11.30;94.30
75161;DHT22;67232;50.096;8.716;2023-11-19T07:06:44;11.20;94.30
75161;DHT22;67232;50.096;8.716;2023-11-19T07:09:09;11.20;94.70
75161;DHT22;67232;50.096;8.716;2023-11-19T07:11:37;11.30;94.60
75161;DHT22;67232;50.096;8.716;2023-11-19T07:14:06;11.30;94.70
75161;DHT22;67232;50.096;8.716;2023-11-19T07:16:37;11.30;94.80
75161;DHT22;67232;50.096;8.716;2023-11-19T07:19:05;11.40;94.50
75161;DHT22;67232;50.096;8.716;2023-11-19T07:21:35;11.30;94.80
75161;DHT22;67232;50.096;8.716;2023-11-19T07:24:05;11.40;94.50
75161;DHT22;67232;50.096;8.716;2023-11-19T07:26:33;11.40;94.60
75161;DHT22;67232;50.096;8.716;2023-11-19T07:29:00;11.40;94.80
75161;DHT22;67232;50.096;8.716;2023-11-19T07:31:27;11.50;94.80
75161;DHT22;67232;50.096;8.716;2023-11-19T07:33:54;11.50;94.70
75161;DHT22;67232;50.096;8.716;2023-11-19T07:36:22;11.50;94.70
75161;DHT22;67232;50.096;8.716;2023-11-19T07:38:48;11.60;94.80
75161;DHT22;67232;50.096;8.716;2023-11-19T07:41:16;11.60;94.60
75161;DHT22;67232;50.096;8.716;2023-11-19T07:43:47;11.70;94.90
75161;DHT22;67232;50.096;8.716;2023-11-19T07:46:15;11.60;94.60
75161;DHT22;67232;50.096;8.716;2023-11-19T07:48:43;11.60;94.80
75161;DHT22;67232;50.096;8.716;2023-11-19T07:51:11;11.60;94.70
75161;DHT22;67232;50.096;8.716;2023-11-19T07:53:37;11.70;95.00
75161;DHT22;67232;50.096;8.716;2023-11-19T07:56:04;11.70;94.90
75161;DHT22;67232;50.096;8.716;2023-11-19T07:58:29;11.80;94.90
75161;DHT22;67232;50.096;8.716;2023-11-19T08:00:55;11.90;95.00
75161;DHT22;67232;50.096;8.716;2023-11-19T08:03:21;12.00;94.70
75161;DHT22;67232;50.096;8.716;2023-11-19T08:05:51;12.00;94.60
75161;DHT22;67232;50.096;8.716;2023-11-19T08:08:17;11.90;94.60
75161;DHT22;67232;50.096;8.716;2023-11-19T08:10:43;12.00;94.80
75161;DHT22;67232;50.096;8.716;2023-11-19T08:13:13;12.10;94.60
75161;DHT22;67232;50.096;8.716;2023-11-19T08:15:38;12.20;94.70
75161;DHT22;67232;50.096;8.716;2023-11-19T08:18:04;12.30;94.80
75161;DHT22;67232;50.096;8.716;2023-11-19T08:20:30;12.40;94.80
75161;DHT22;67232;50.096;8.716;2023-11-19T08:22:58;12.50;94.40
75161;DHT22;67232;50.096;8.716;2023-11-19T08:25:23;12.50;94.20
75161;DHT22;67232;50.096;8.716;2023-11-19T08:27:49;12.60;94.20
75161;DHT22;67232;50.096;8.716;2023-11-19T08:30:17;12.60;94.00
75161;DHT22;67232;50.096;8.716;2023-11-19T08:32:42;12.60;93.90
75161;DHT22;67232;50.096;8.716;2023-11-19T08:35:08;12.60;93.90
75161;DHT22;67232;50.096;8.716;2023-11-19T08:37:34;12.60;94.00
75161;DHT22;67232;50.096;8.716;2023-11-19T08:40:04;12.70;93.80
75161;DHT22;67232;50.096;8.716;2023-11-19T08:42:30;12.70;93.80
75161;DHT22;67232;50.096;8.716;2023-11-19T08:44:58;12.80;93.90
75161;DHT22;67232;50.096;8.716;2023-11-19T08:47:26;12.80;93.60
75161;DHT22;67232;50.096;8.716;2023-11-19T08:49:54;12.80;93.30
75161;DHT22;67232;50.096;8.716;2023-11-19T08:52:20;12.70;93.70
75161;DHT22;67232;50.096;8.716;2023-11-19T08:54:48;12.60;93.90
75161;DHT22;67232;50.096;8.716;2023-11-19T08:57:16;12.60;94.00
75161;DHT22;67232;50.096;8.716;2023-11-19T08:59:44;12.80;94.00
75161;DHT22;67232;50.096;8.716;2023-11-19T09:02:12;12.80;94.00
75161;DHT22;67232;50.096;8.716;2023-11-19T09:04:39;12.80;93.90
75161;DHT22;67232;50.096;8.716;2023-11-19T09:07:06;12.70;93.90
75161;DHT22;67232;50.096;8.716;2023-11-19T09:09:32;12.60;94.20
75161;DHT22;67232;50.096;8.716;2023-11-19T09:12:03;12.70;94.00
75161;DHT22;67232;50.096;8.716;2023-11-19T09:14:29;12.70;94.00
75161;DHT22;67232;50.096;8.716;2023-11-19T09:16:57;12.90;94.20
75161;DHT22;67232;50.096;8.716;2023-11-19T09:19:24;13.20;93.80
75161;DHT22;67232;50.096;8.716;2023-11-19T09:21:55;13.20;93.30
75161;DHT22;67232;50.096;8.716;2023-11-19T09:24:20;13.30;93.20
75161;DHT22;67232;50.096;8.716;2023-11-19T09:26:46;13.50;93.00
75161;DHT22;67232;50.096;8.716;2023-11-19T09:29:13;13.80;92.90
75161;DHT22;67232;50.096;8.716;2023-11-19T09:31:42;14.20;92.30
75161;DHT22;67232;50.096;8.716;2023-11-19T09:34:10;14.70;90.90
75161;DHT22;67232;50.096;8.716;2023-11-19T09:36:38;15.10;89.50
75161;DHT22;67232;50.096;8.716;2023-11-19T09:39:04;15.50;88.30
75161;DHT22;67232;50.096;8.716;2023-11-19T09:41:30;16.20;87.10
75161;DHT22;67232;50.096;8.716;2023-11-19T09:43:56;16.70;86.00
75161;DHT22;67232;50.096;8.716;2023-11-19T09:46:25;17.20;84.40
75161;DHT22;67232;50.096;8.716;2023-11-19T09:48:53;18.00;83.20
75161;DHT22;67232;50.096;8.716;2023-11-19T09:51:22;18.70;81.00
75161;DHT22;67232;50.096;8.716;2023-11-19T09:53:50;19.40;78.90
75161;DHT22;67232;50.096;8.716;2023-11-19T09:56:16;20.00;78.30
75161;DHT22;67232;50.096;8.716;2023-11-19T09:58:44;20.80;75.70
75161;DHT22;67232;50.096;8.716;2023-11-19T10:01:12;21.60;73.40
75161;DHT22;67232;50.096;8.716;2023-11-19T10:03:44;21.40;72.50
75161;DHT22;67232;50.096;8.716;2023-11-19T10:06:12;21.40;73.20
75161;DHT22;67232;50.096;8.716;2023-11-19T10:08:43;20.90;73.20
75161;DHT22;67232;50.096;8.716;2023-11-19T10:11:09;21.50;71.30
75161;DHT22;67232;50.096;8.716;2023-11-19T10:13:41;21.80;71.70
75161;DHT22;67232;50.096;8.716;2023-11-19T10:16:14;22.70;71.00
75161;DHT22;67232;50.096;8.716;2023-11-19T10:18:47;23.40;67.70
75161;DHT22;67232;50.096;8.716;2023-11-19T10:21:18;24.10;65.30
75161;DHT22;67232;50.096;8.716;2023-11-19T10:23:50;24.00;64.70
75161;DHT22;67232;50.096;8.716;2023-11-19T10:26:25;23.70;63.70
75161;DHT22;67232;50.096;8.716;2023-11-19T10:28:51;24.10;63.90
75161;DHT22;67232;50.096;8.716;2023-11-19T10:31:18;24.40;62.50
75161;DHT22;67232;50.096;8.716;2023-11-19T10:33:50;24.60;62.20
75161;DHT22;67232;50.096;8.716;2023-11-19T10:36:15;25.20;61.10
75161;DHT22;67232;50.096;8.716;2023-11-19T10:38:54;25.50;60.40
75161;DHT22;67232;50.096;8.716;2023-11-19T10:41:29;25.40;60.00
75161;DHT22;67232;50.096;8.716;2023-11-19T10:44:00;25.50;59.40
75161;DHT22;67232;50.096;8.716;2023-11-19T10:46:39;24.80;59.70
75161;DHT22;67232;50.096;8.716;2023-11-19T10:49:11;24.10;61.10
75161;DHT22;67232;50.096;8.716;2023-11-19T10:51:43;23.80;61.60
75161;DHT22;67232;50.096;8.716;2023-11-19T10:54:11;23.10;62.90
75161;DHT22;67232;50.096;8.716;2023-11-19T10:56:40;22.80;64.00
75161;DHT22;67232;50.096;8.716;2023-11-19T10:59:07;22.80;63.90
75161;DHT22;67232;50.096;8.716;2023-11-19T11:01:45;23.00;63.60
75161;DHT22;67232;50.096;8.716;2023-11-19T11:04:24;22.20;63.30
75161;DHT22;67232;50.096;8.716;2023-11-19T11:06:54;22.00;64.10
75161;DHT22;67232;50.096;8.716;2023-11-19T11:09:23;22.00;63.90
75161;DHT22;67232;50.096;8.716;2023-11-19T11:11:51;22.20;63.60
75161;DHT22;67232;50.096;8.716;2023-11-19T11:14:23;22.00;63.50
75161;DHT22;67232;50.096;8.716;2023-11-19T11:16:53;22.40;62.40
75161;DHT22;67232;50.096;8.716;2023-11-19T11:19:18;22.60;62.20
75161;DHT22;67232;50.096;8.716;2023-11-19T11:21:53;22.60;60.00
75161;DHT22;67232;50.096;8.716;2023-11-19T11:35:24;20.90;61.80
75161;DHT22;67232;50.096;8.716;2023-11-19T11:38:00;20.50;62.20
75161;DHT22;67232;50.096;8.716;2023-11-19T11:40:26;20.40;62.30
75161;DHT22;67232;50.096;8.716;2023-11-19T11:42:54;0.00;0.00
75161;DHT22;67232;50.096;8.716;2023-11-19T11:45:38;19.90;62.70
75161;DHT22;67232;50.096;8.716;2023-11-19T11:48:10;19.10;64.90
75161;DHT22;67232;50.096;8.716;2023-11-19T11:50:49;18.60;66.40
75161;DHT22;67232;50.096;8.716;2023-11-19T11:53:19;18.30;66.80
75161;DHT22;67232;50.096;8.716;2023-11-19T11:58:29;17.60;69.60
75161;DHT22;67232;50.096;8.716;2023-11-19T12:01:00;17.30;70.50
75161;DHT22;67232;50.096;8.716;2023-11-19T12:03:28;17.20;72.50
75161;DHT22;67232;50.096;8.716;2023-11-19T12:06:00;17.80;72.60
75161;DHT22;67232;50.096;8.716;2023-11-19T12:08:31;19.40;67.20
75161;DHT22;67232;50.096;8.716;2023-11-19T12:11:05;20.70;64.10
75161;DHT22;67232;50.096;8.716;2023-11-19T12:13:55;20.70;64.10
75161;DHT22;67232;50.096;8.716;2023-11-19T12:16:23;20.10;64.80
75161;DHT22;67232;50.096;8.716;2023-11-19T12:18:53;19.80;65.20
75161;DHT22;67232;50.096;8.716;2023-11-19T12:21:29;19.90;65.40
75161;DHT22;67232;50.096;8.716;2023-11-19T12:23:57;20.20;64.80
75161;DHT22;67232;50.096;8.716;2023-11-19T12:26:37;20.40;63.70
75161;DHT22;67232;50.096;8.716;2023-11-19T12:29:06;21.60;61.70
75161;DHT22;67232;50.096;8.716;2023-11-19T12:31:32;22.70;59.80
75161;DHT22;67232;50.096;8.716;2023-11-19T12:33:58;23.10;58.90
75161;DHT22;67232;50.096;8.716;2023-11-19T12:36:26;23.60;57.00
75161;DHT22;67232;50.096;8.716;2023-11-19T12:38:52;23.80;55.80
75161;DHT22;67232;50.096;8.716;2023-11-19T12:41:20;23.30;57.10
75161;DHT22;67232;50.096;8.716;2023-11-19T12:43:48;22.20;58.60
75161;DHT22;67232;50.096;8.716;2023-11-19T12:46:18;21.80;57.30
75161;DHT22;67232;50.096;8.716;2023-11-19T12:48:48;21.20;59.70
75161;DHT22;67232;50.096;8.716;2023-11-19T12:51:14;21.70;59.30
75161;DHT22;67232;50.096;8.716;2023-11-19T12:53:52;22.10;58.40
75161;DHT22;67232;50.096;8.716;2023-11-19T12:56:26;0.00;0.00
75161;DHT22;67232;50.096;8.716;2023-11-19T12:58:51;21.40;57.60
75161;DHT22;67232;50.096;8.716;2023-11-19T13:01:18;20.70;60.60
75161;DHT22;67232;50.096;8.716;2023-11-19T13:03:47;20.00;61.80
75161;DHT22;67232;50.096;8.716;2023-11-19T13:06:16;19.50;63.80
75161;DHT22;67232;50.096;8.716;2023-11-19T13:08:54;19.10;64.20
75161;DHT22;67232;50.096;8.716;2023-11-19T13:11:34;18.80;65.00
75161;DHT22;67232;50.096;8.716;2023-11-19T13:14:03;18.50;65.60
75161;DHT22;67232;50.096;8.716;2023-11-19T13:16:37;18.20;66.20
75161;DHT22;67232;50.096;8.716;2023-11-19T13:19:04;17.90;68.00
75161;DHT22;67232;50.096;8.716;2023-11-19T13:21:30;17.70;68.50
75161;DHT22;67232;50.096;8.716;2023-11-19T13:23:56;17.70;68.90
75161;DHT22;67232;50.096;8.716;2023-11-19T13:26:24;17.40;68.80
75161;DHT22;67232;50.096;8.716;2023-11-19T13:28:50;17.30;68.70
75161;DHT22;67232;50.096;8.716;2023-11-19T13:31:17;17.00;69.60
75161;DHT22;67232;50.096;8.716;2023-11-19T13:33:45;17.00;69.40
75161;DHT22;67232;50.096;8.716;2023-11-19T13:36:11;16.80;70.00
75161;DHT22;67232;50.096;8.716;2023-11-19T13:38:36;16.60;69.60
75161;DHT22;67232;50.096;8.716;2023-11-19T13:41:04;16.40;69.60
75161;DHT22;67232;50.096;8.716;2023-11-19T13:43:32;16.40;70.20
75161;DHT22;67232;50.096;8.716;2023-11-19T13:46:01;0.00;0.00
75161;DHT22;67232;50.096;8.716;2023-11-19T13:48:26;16.30;69.90
75161;DHT22;67232;50.096;8.716;2023-11-19T13:50:57;16.40;69.60
75161;DHT22;67232;50.096;8.716;2023-11-19T13:53:25;16.30;69.10
75161;DHT22;67232;50.096;8.716;2023-11-19T13:55:53;16.20;69.30
75161;DHT22;67232;50.096;8.716;2023-11-19T13:58:21;16.30;69.30
75161;DHT22;67232;50.096;8.716;2023-11-19T14:00:48;16.20;69.50
75161;DHT22;67232;50.096;8.716;2023-11-19T14:03:14;16.10;70.10
75161;DHT22;67232;50.096;8.716;2023-11-19T14:05:40;16.10;69.70
75161;DHT22;67232;50.096;8.716;2023-11-19T14:08:06;16.00;69.90
75161;DHT22;67232;50.096;8.716;2023-11-19T14:10:39;15.90;69.30
75161;DHT22;67232;50.096;8.716;2023-11-19T14:13:09;15.90;70.00
75161;DHT22;67232;50.096;8.716;2023-11-19T14:15:37;15.80;70.30
75161;DHT22;67232;50.096;8.716;2023-11-19T14:18:05;15.80;70.30
75161;DHT22;67232;50.096;8.716;2023-11-19T14:20:30;15.80;69.50
75161;DHT22;67232;50.096;8.716;2023-11-19T14:23:00;15.70;69.10
75161;DHT22;67232;50.096;8.716;2023-11-19T14:25:28;15.80;68.90
75161;DHT22;67232;50.096;8.716;2023-11-19T14:27:54;15.70;68.30
75161;DHT22;67232;50.096;8.716;2023-11-19T14:30:22;15.70;68.70
75161;DHT22;67232;50.096;8.716;2023-11-19T14:32:50;15.60;68.70
75161;DHT22;67232;50.096;8.716;2023-11-19T14:35:18;15.60;68.60
75161;DHT22;67232;50.096;8.716;2023-11-19T14:37:45;15.50;68.80
75161;DHT22;67232;50.096;8.716;2023-11-19T14:40:11;15.50;68.40
75161;DHT22;67232;50.096;8.716;2023-11-19T14:42:39;15.40;68.60
75161;DHT22;67232;50.096;8.716;2023-11-19T14:45:05;15.40;69.40
75161;DHT22;67232;50.096;8.716;2023-11-19T14:47:33;15.30;70.60
75161;DHT22;67232;50.096;8.716;2023-11-19T14:49:59;15.20;70.30
75161;DHT22;67232;50.096;8.716;2023-11-19T14:52:25;15.20;70.60
75161;DHT22;67232;50.096;8.716;2023-11-19T14:54:53;15.20;70.90
75161;DHT22;67232;50.096;8.716;2023-11-19T14:57:24;15.20;70.60
75161;DHT22;67232;50.096;8.716;2023-11-19T14:59:50;15.20;71.00
75161;DHT22;67232;50.096;8.716;2023-11-19T15:02:15;15.20;71.10
75161;DHT22;67232;50.096;8.716;2023-11-19T15:04:44;15.10;70.40
75161;DHT22;67232;50.096;8.716;2023-11-19T15:07:12;15.10;70.40
75161;DHT22;67232;50.096;8.716;2023-11-19T15:09:37;15.10;70.70
75161;DHT22;67232;50.096;8.716;2023-11-19T15:12:05;15.10;70.30
75161;DHT22;67232;50.096;8.716;2023-11-19T15:14:30;15.10;70.80
75161;DHT22;67232;50.096;8.716;2023-11-19T15:16:56;15.00;71.00
75161;DHT22;67232;50.096;8.716;2023-11-19T15:19:22;14.90;71.90
75161;DHT22;67232;50.096;8.716;2023-11-19T15:21:47;14.80;71.30
75161;DHT22;67232;50.096;8.716;2023-11-19T15:24:15;14.80;71.40
75161;DHT22;67232;50.096;8.716;2023-11-19T15:26:43;14.80;71.20
75161;DHT22;67232;50.096;8.716;2023-11-19T15:29:11;14.80;71.30
75161;DHT22;67232;50.096;8.716;2023-11-19T15:31:37;14.80;71.40
75161;DHT22;67232;50.096;8.716;2023-11-19T15:34:02;14.70;71.30
75161;DHT22;67232;50.096;8.716;2023-11-19T15:36:28;14.70;71.40
75161;DHT22;67232;50.096;8.716;2023-11-19T15:38:57;14.80;71.20
75161;DHT22;67232;50.096;8.716;2023-11-19T15:41:22;14.70;72.20
75161;DHT22;67232;50.096;8.716;2023-11-19T15:43:48;14.70;72.30
75161;DHT22;67232;50.096;8.716;2023-11-19T15:46:16;14.70;71.60
75161;DHT22;67232;50.096;8.716;2023-11-19T15:48:42;14.70;72.00
75161;DHT22;67232;50.096;8.716;2023-11-19T15:51:10;14.70;72.30
75161;DHT22;67232;50.096;8.716;2023-11-19T15:53:35;14.60;72.50
75161;DHT22;67232;50.096;8.716;2023-11-19T15:56:04;14.60;71.90
75161;DHT22;67232;50.096;8.716;2023-11-19T15:58:30;0.00;0.00
75161;DHT22;67232;50.096;8.716;2023-11-19T16:00:56;0.00;0.00
75161;DHT22;67232;50.096;8.716;2023-11-19T16:03:22;0.00;0.00
75161;DHT22;67232;50.096;8.716;2023-11-19T16:05:47;0.00;0.00
75161;DHT22;67232;50.096;8.716;2023-11-19T16:08:13;0.00;0.00
75161;DHT22;67232;50.096;8.716;2023-11-19T16:10:39;0.00;0.00
75161;DHT22;67232;50.096;8.716;2023-11-19T16:13:08;0.00;0.00
75161;DHT22;67232;50.096;8.716;2023-11-19T16:15:34;0.00;0.00
75161;DHT22;67232;50.096;8.716;2023-11-19T16:18:02;0.00;0.00
75161;DHT22;67232;50.096;8.716;2023-11-19T16:20:30;0.00;0.00
75161;DHT22;67232;50.096;8.716;2023-11-19T16:22:59;0.00;0.00
75161;DHT22;67232;50.096;8.716;2023-11-19T16:25:26;0.00;0.00
75161;DHT22;67232;50.096;8.716;2023-11-19T16:27:52;0.00;0.00
75161;DHT22;67232;50.096;8.716;2023-11-19T16:30:17;0.00;0.00
75161;DHT22;67232;50.096;8.716;2023-11-19T16:32:53;0.00;0.00
75161;DHT22;67232;50.096;8.716;2023-11-19T16:35:19;14.40;72.60
75161;DHT22;67232;50.096;8.716;2023-11-19T16:37:45;14.30;72.50
75161;DHT22;67232;50.096;8.716;2023-11-19T16:40:11;14.20;73.00
75161;DHT22;67232;50.096;8.716;2023-11-19T16:42:38;14.10;73.10
75161;DHT22;67232;50.096;8.716;2023-11-19T16:45:05;14.00;73.60
75161;DHT22;67232;50.096;8.716;2023-11-19T16:47:31;14.10;73.50
75161;DHT22;67232;50.096;8.716;2023-11-19T16:49:59;14.10;73.10
75161;DHT22;67232;50.096;8.716;2023-11-19T16:52:25;14.20;73.00
75161;DHT22;67232;50.096;8.716;2023-11-19T16:54:54;14.10;73.10
75161;DHT22;67232;50.096;8.716;2023-11-19T16:57:22;14.10;73.50
75161;DHT22;67232;50.096;8.716;2023-11-19T16:59:53;14.10;73.10
75161;DHT22;67232;50.096;8.716;2023-11-19T17:02:22;14.00;73.50
75161;DHT22;67232;50.096;8.716;2023-11-19T17:04:50;14.20;73.10
75161;DHT22;67232;50.096;8.716;2023-11-19T17:07:16;14.20;73.20
75161;DHT22;67232;50.096;8.716;2023-11-19T17:09:42;14.10;72.80
75161;DHT22;67232;50.096;8.716;2023-11-19T17:12:13;14.10;73.20
75161;DHT22;67232;50.096;8.716;2023-11-19T17:14:38;14.10;73.10
75161;DHT22;67232;50.096;8.716;2023-11-19T17:17:04;14.10;73.30
75161;DHT22;67232;50.096;8.716;2023-11-19T17:19:29;14.20;73.00
75161;DHT22;67232;50.096;8.716;2023-11-19T17:21:58;14.10;73.20
75161;DHT22;67232;50.096;8.716;2023-11-19T17:24:24;14.10;73.20
75161;DHT22;67232;50.096;8.716;2023-11-19T17:26:49;14.10;72.90
75161;DHT22;67232;50.096;8.716;2023-11-19T17:29:15;14.00;73.00
75161;DHT22;67232;50.096;8.716;2023-11-19T17:31:43;14.00;73.10
75161;DHT22;67232;50.096;8.716;2023-11-19T17:34:11;13.90;73.30
75161;DHT22;67232;50.096;8.716;2023-11-19T17:36:39;13.80;73.30
75161;DHT22;67232;50.096;8.716;2023-11-19T17:39:15;13.90;73.10
75161;DHT22;67232;50.096;8.716;2023-11-19T17:41:40;13.80;73.30
75161;DHT22;67232;50.096;8.716;2023-11-19T17:44:06;13.80;73.20
75161;DHT22;67232;50.096;8.716;2023-11-19T17:46:34;13.80;73.20
75161;DHT22;67232;50.096;8.716;2023-11-19T17:48:59;13.80;73.50
75161;DHT22;67232;50.096;8.716;2023-11-19T17:51:25;13.90;73.50
75161;DHT22;67232;50.096;8.716;2023-11-19T17:53:50;0.00;0.00
75161;DHT22;67232;50.096;8.716;2023-11-19T17:56:18;13.80;72.80
75161;DHT22;67232;50.096;8.716;2023-11-19T17:58:46;13.70;73.20
75161;DHT22;67232;50.096;8.716;2023-11-19T18:01:12;13.70;73.30
75161;DHT22;67232;50.096;8.716;2023-11-19T18:03:38;13.60;73.60
75161;DHT22;67232;50.096;8.716;2023-11-19T18:06:15;13.60;73.50
75161;DHT22;67232;50.096;8.716;2023-11-19T18:08:43;13.60;73.60
75161;DHT22;67232;50.096;8.716;2023-11-19T18:11:31;13.60;73.50
75161;DHT22;67232;50.096;8.716;2023-11-19T18:14:21;13.60;73.60
75161;DHT22;67232;50.096;8.716;2023-11-19T18:17:27;13.40;74.10
75161;DHT22;67232;50.096;8.716;2023-11-19T18:20:23;13.40;74.20
75161;DHT22;67232;50.096;8.716;2023-11-19T18:26:59;13.30;74.00
75161;DHT22;67232;50.096;8.716;2023-11-19T18:29:48;13.20;74.20
75161;DHT22;67232;50.096;8.716;2023-11-19T18:32:14;13.30;74.10
75161;DHT22;67232;50.096;8.716;2023-11-19T18:34:40;13.20;74.10
75161;DHT22;67232;50.096;8.716;2023-11-19T18:37:06;13.30;74.00
75161;DHT22;67232;50.096;8.716;2023-11-19T18:39:32;13.40;73.90
75161;DHT22;67232;50.096;8.716;2023-11-19T18:41:58;13.20;74.50
75161;DHT22;67232;50.096;8.716;2023-11-19T18:44:23;13.30;74.70
75161;DHT22;67232;50.096;8.716;2023-11-19T18:46:49;13.20;74.80
75161;DHT22;67232;50.096;8.716;2023-11-19T18:49:17;13.20;75.30
75161;DHT22;67232;50.096;8.716;2023-11-19T18:51:42;13.10;75.60
75161;DHT22;67232;50.096;8.716;2023-11-19T18:54:08;13.10;75.70
75161;DHT22;67232;50.096;8.716;2023-11-19T18:56:34;13.10;75.90
75161;DHT22;67232;50.096;8.716;2023-11-19T18:59:02;13.10;76.00
75161;DHT22;67232;50.096;8.716;2023-11-19T19:01:28;13.10;76.00
75161;DHT22;67232;50.096;8.716;2023-11-19T19:03:56;13.10;76.00
75161;DHT22;67232;50.096;8.716;2023-11-19T19:06:24;13.10;76.10
75161;DHT22;67232;50.096;8.716;2023-11-19T19:08:56;13.10;76.10
75161;DHT22;67232;50.096;8.716;2023-11-19T19:11:22;13.00;76.30
75161;DHT22;67232;50.096;8.716;2023-11-19T19:13:50;12.90;76.50
75161;DHT22;67232;50.096;8.716;2023-11-19T19:16:16;13.00;76.50
75161;DHT22;67232;50.096;8.716;2023-11-19T19:18:42;12.90;76.40
75161;DHT22;67232;50.096;8.716;2023-11-19T19:21:08;13.10;76.30
75161;DHT22;67232;50.096;8.716;2023-11-19T19:23:36;13.10;76.00
75161;DHT22;67232;50.096;8.716;2023-11-19T19:26:04;13.10;76.00
75161;DHT22;67232;50.096;8.716;2023-11-19T19:28:30;13.00;76.10
75161;DHT22;67232;50.096;8.716;2023-11-19T19:33:29;13.20;75.80
75161;DHT22;67232;50.096;8.716;2023-11-19T19:35:54;13.10;75.70
75161;DHT22;67232;50.096;8.716;2023-11-19T19:38:20;13.10;75.80
75161;DHT22;67232;50.096;8.716;2023-11-19T19:40:46;13.10;75.80
75161;DHT22;67232;50.096;8.716;2023-11-19T19:43:11;13.20;75.60
75161;DHT22;67232;50.096;8.716;2023-11-19T19:45:37;13.20;75.30
75161;DHT22;67232;50.096;8.716;2023-11-19T19:48:05;13.20;75.50
75161;DHT22;67232;50.096;8.716;2023-11-19T19:50:33;13.10;75.80
75161;DHT22;67232;50.096;8.716;2023-11-19T19:52:59;13.20;75.80
75161;DHT22;67232;50.096;8.716;2023-11-19T19:55:24;13.20;75.90
75161;DHT22;67232;50.096;8.716;2023-11-19T19:57:52;13.20;75.80
75161;DHT22;67232;50.096;8.716;2023-11-19T20:00:18;13.30;75.60
75161;DHT22;67232;50.096;8.716;2023-11-19T20:02:46;13.30;75.70
75161;DHT22;67232;50.096;8.716;2023-11-19T20:05:12;13.30;75.80
75161;DHT22;67232;50.096;8.716;2023-11-19T20:07:41;13.30;76.00
75161;DHT22;67232;50.096;8.716;2023-11-19T20:10:08;13.30;75.90
75161;DHT22;67232;50.096;8.716;2023-11-19T20:12:38;13.30;75.90
75161;DHT22;67232;50.096;8.716;2023-11-19T20:15:07;13.20;76.10
75161;DHT22;67232;50.096;8.716;2023-11-19T20:17:33;13.20;76.20
75161;DHT22;67232;50.096;8.716;2023-11-19T20:19:59;13.30;76.20
75161;DHT22;67232;50.096;8.716;2023-11-19T20:22:26;13.20;76.20
75161;DHT22;67232;50.096;8.716;2023-11-19T20:24:55;13.30;76.10
75161;DHT22;67232;50.096;8.716;2023-11-19T20:27:23;13.30;76.30
75161;DHT22;67232;50.096;8.716;2023-11-19T20:29:48;13.30;76.40
75161;DHT22;67232;50.096;8.716;2023-11-19T20:32:14;13.40;76.40
75161;DHT22;67232;50.096;8.716;2023-11-19T20:34:42;13.40;76.30
75161;DHT22;67232;50.096;8.716;2023-11-19T20:37:08;13.40;76.40
75161;DHT22;67232;50.096;8.716;2023-11-19T20:39:36;13.40;76.50